PWSweather.com
Personal Weather Stations
Station Observations

VihtavuoriFI

Lat: 62.3670859, Lon: 25.9019003

Elevation: 324.8

Station Type: Davis Vantage PRO2 Aktiv

http://www.kapoweather.net/index.php

Latest ConditionsUpdated 11:15:00 PM GMT+02:02 Thursday, Sep 21, 2017
Currently Today's Max Today's Min Today's Average
Temperature 49.5°F9.7°C 53.7°F12.1°C 47.1°F8.4°C 49.8°F9.9°C
Dew Point 47.3°F8.5°C 51.0°F10.6°C 45.2°F7.3°C 48.1°F8.9°C
Winds 1.0 mph ENE1.6 kmh ENE 3.0 mph NE4.8 kmh NE - 1.4 mph 2.3 kmh
Wind Gusts 5.0 mph8.0 kmh 11.0 mph17.7 kmh - -
Humidity 92% 97% 90% 94%
Pressure 30.51 in1033.2 mb 30.51 in1033.2 mb 30.28 in1025.4 mb -
Hour Temp Dew Point Humidity Winds Wind Gusts Pressure Precip Precip Rate Daily Precip Total
11:15 PM 49.5°F9.7°C 47.3°F8.5°C 92% 1.0 mph ENE1.6 kmh ENE 5.0 mph8.0 kmh 30.51 in1033.2 mb 0.00 in0.0 mm 0.00 in0.0 mm 0.01 in0.3 mm
11:00 PM 49.5°F9.7°C 47.3°F8.5°C 92% 1.0 mph NE1.6 kmh NE 6.0 mph9.7 kmh 30.51 in1033.2 mb 0.00 in0.0 mm 0.00 in0.0 mm 0.01 in0.3 mm
10:45 PM 49.6°F9.8°C 47.7°F8.7°C 93% 1.0 mph NE1.6 kmh NE 8.0 mph12.9 kmh 30.50 in1032.8 mb 0.00 in0.0 mm 0.00 in0.0 mm 0.01 in0.3 mm
10:30 PM 49.6°F9.8°C 47.4°F8.6°C 92% Calm Calm 2.0 mph3.2 kmh 30.51 in1033.2 mb 0.00 in0.0 mm 0.00 in0.0 mm 0.01 in0.3 mm
10:15 PM 49.6°F9.8°C 47.7°F8.7°C 93% 1.0 mph E1.6 kmh E 8.0 mph12.9 kmh 30.51 in1033.2 mb 0.00 in0.0 mm 0.00 in0.0 mm 0.01 in0.3 mm
10:00 PM 49.7°F9.8°C 47.5°F8.6°C 92% 1.0 mph E1.6 kmh E 4.0 mph6.4 kmh 30.51 in1033.2 mb 0.00 in0.0 mm 0.00 in0.0 mm 0.01 in0.3 mm
09:45 PM 49.6°F9.8°C 47.4°F8.6°C 92% 2.0 mph ENE3.2 kmh ENE 9.0 mph14.5 kmh 30.51 in1033.2 mb 0.00 in0.0 mm 0.00 in0.0 mm 0.01 in0.3 mm
09:30 PM 49.6°F9.8°C 47.4°F8.6°C 92% 2.0 mph ENE3.2 kmh ENE 8.0 mph12.9 kmh 30.51 in1033.2 mb 0.00 in0.0 mm 0.00 in0.0 mm 0.01 in0.3 mm
09:15 PM 49.6°F9.8°C 47.4°F8.6°C 92% 2.0 mph ENE3.2 kmh ENE 8.0 mph12.9 kmh 30.50 in1032.8 mb 0.00 in0.0 mm 0.00 in0.0 mm 0.01 in0.3 mm
09:00 PM 49.6°F9.8°C 47.4°F8.6°C 92% 2.0 mph ENE3.2 kmh ENE 6.0 mph9.7 kmh 30.50 in1032.8 mb 0.00 in0.0 mm 0.00 in0.0 mm 0.01 in0.3 mm
08:45 PM 49.5°F9.7°C 47.3°F8.5°C 92% 1.0 mph E1.6 kmh E 4.0 mph6.4 kmh 30.50 in1032.8 mb 0.00 in0.0 mm 0.00 in0.0 mm 0.01 in0.3 mm
08:30 PM 49.5°F9.7°C 47.6°F8.7°C 93% Calm Calm 6.0 mph9.7 kmh 30.51 in1033.2 mb 0.00 in0.0 mm 0.00 in0.0 mm 0.01 in0.3 mm
08:15 PM 49.5°F9.7°C 47.6°F8.7°C 93% 1.0 mph NE1.6 kmh NE 3.0 mph4.8 kmh 30.50 in1032.8 mb 0.00 in0.0 mm 0.00 in0.0 mm 0.01 in0.3 mm
08:00 PM 49.6°F9.8°C 47.7°F8.7°C 93% Calm Calm 4.0 mph6.4 kmh 30.50 in1032.8 mb 0.00 in0.0 mm 0.00 in0.0 mm 0.01 in0.3 mm
07:45 PM 49.8°F9.9°C 47.9°F8.8°C 93% 1.0 mph NE1.6 kmh NE 5.0 mph8.0 kmh 30.50 in1032.8 mb 0.00 in0.0 mm 0.00 in0.0 mm 0.01 in0.3 mm
07:30 PM 50.0°F10.0°C 48.1°F8.9°C 93% 3.0 mph NE4.8 kmh NE 9.0 mph14.5 kmh 30.49 in1032.5 mb 0.00 in0.0 mm 0.00 in0.0 mm 0.01 in0.3 mm
07:15 PM 50.1°F10.1°C 48.2°F9.0°C 93% 2.0 mph NE3.2 kmh NE 9.0 mph14.5 kmh 30.49 in1032.5 mb 0.00 in0.0 mm 0.00 in0.0 mm 0.01 in0.3 mm
07:00 PM 50.3°F10.2°C 48.4°F9.1°C 93% 1.0 mph ENE1.6 kmh ENE 8.0 mph12.9 kmh 30.48 in1032.2 mb 0.00 in0.0 mm 0.00 in0.0 mm 0.01 in0.3 mm
06:45 PM 50.4°F10.2°C 48.5°F9.2°C 93% 1.0 mph ENE1.6 kmh ENE 8.0 mph12.9 kmh 30.48 in1032.2 mb 0.00 in0.0 mm 0.00 in0.0 mm 0.01 in0.3 mm
06:30 PM 50.5°F10.3°C 48.6°F9.2°C 93% 1.0 mph NE1.6 kmh NE 5.0 mph8.0 kmh 30.48 in1032.2 mb 0.00 in0.0 mm 0.00 in0.0 mm 0.01 in0.3 mm
06:15 PM 50.6°F10.3°C 48.7°F9.3°C 93% 1.0 mph NE1.6 kmh NE 4.0 mph6.4 kmh 30.48 in1032.2 mb 0.00 in0.0 mm 0.00 in0.0 mm 0.01 in0.3 mm
06:00 PM 50.7°F10.4°C 48.7°F9.3°C 93% 2.0 mph NE3.2 kmh NE 8.0 mph12.9 kmh 30.47 in1031.8 mb 0.00 in0.0 mm 0.00 in0.0 mm 0.01 in0.3 mm
05:45 PM 50.9°F10.5°C 48.9°F9.4°C 93% 3.0 mph NE4.8 kmh NE 8.0 mph12.9 kmh 30.47 in1031.8 mb 0.00 in0.0 mm 0.00 in0.0 mm 0.01 in0.3 mm
05:30 PM 51.0°F10.6°C 49.0°F9.4°C 93% 2.0 mph NE3.2 kmh NE 8.0 mph12.9 kmh 30.47 in1031.8 mb 0.00 in0.0 mm 0.00 in0.0 mm 0.01 in0.3 mm
05:15 PM 51.1°F10.6°C 49.1°F9.5°C 93% 2.0 mph NE3.2 kmh NE 9.0 mph14.5 kmh 30.47 in1031.8 mb 0.00 in0.0 mm 0.00 in0.0 mm 0.01 in0.3 mm
05:00 PM 51.3°F10.7°C 49.1°F9.5°C 92% 2.0 mph NE3.2 kmh NE 8.0 mph12.9 kmh 30.48 in1032.2 mb 0.00 in0.0 mm 0.00 in0.0 mm 0.01 in0.3 mm
04:45 PM 51.8°F11.0°C 49.3°F9.6°C 91% 1.0 mph NE1.6 kmh NE 5.0 mph8.0 kmh 30.48 in1032.2 mb 0.00 in0.0 mm 0.00 in0.0 mm 0.01 in0.3 mm
04:30 PM 52.2°F11.2°C 49.7°F9.8°C 91% 1.0 mph NE1.6 kmh NE 4.0 mph6.4 kmh 30.48 in1032.2 mb 0.00 in0.0 mm 0.00 in0.0 mm 0.01 in0.3 mm
04:15 PM 52.4°F11.3°C 49.8°F9.9°C 91% 1.0 mph NE1.6 kmh NE 5.0 mph8.0 kmh 30.47 in1031.8 mb 0.00 in0.0 mm 0.00 in0.0 mm 0.01 in0.3 mm
04:00 PM 52.8°F11.6°C 49.9°F9.9°C 90% 2.0 mph E3.2 kmh E 11.0 mph17.7 kmh 30.47 in1031.8 mb 0.00 in0.0 mm 0.00 in0.0 mm 0.01 in0.3 mm
03:45 PM 53.1°F11.7°C 50.2°F10.1°C 90% 2.0 mph E3.2 kmh E 9.0 mph14.5 kmh 30.47 in1031.8 mb 0.00 in0.0 mm 0.00 in0.0 mm 0.01 in0.3 mm
03:30 PM 53.1°F11.7°C 50.5°F10.3°C 91% 3.0 mph E4.8 kmh E 8.0 mph12.9 kmh 30.47 in1031.8 mb 0.00 in0.0 mm 0.00 in0.0 mm 0.01 in0.3 mm
03:15 PM 53.4°F11.9°C 50.8°F10.4°C 91% 1.0 mph ENE1.6 kmh ENE 7.0 mph11.3 kmh 30.47 in1031.8 mb 0.00 in0.0 mm 0.00 in0.0 mm 0.01 in0.3 mm
03:00 PM 53.4°F11.9°C 50.8°F10.4°C 91% 3.0 mph ENE4.8 kmh ENE 9.0 mph14.5 kmh 30.46 in1031.5 mb 0.00 in0.0 mm 0.00 in0.0 mm 0.01 in0.3 mm
02:45 PM 53.7°F12.1°C 50.8°F10.4°C 90% 2.0 mph ENE3.2 kmh ENE 7.0 mph11.3 kmh 30.46 in1031.5 mb 0.00 in0.0 mm 0.00 in0.0 mm 0.01 in0.3 mm
02:30 PM 53.6°F12.0°C 51.0°F10.6°C 91% 2.0 mph ENE3.2 kmh ENE 11.0 mph17.7 kmh 30.46 in1031.5 mb 0.00 in0.0 mm 0.00 in0.0 mm 0.01 in0.3 mm
02:15 PM 53.1°F11.7°C 50.8°F10.4°C 92% 3.0 mph E4.8 kmh E 9.0 mph14.5 kmh 30.46 in1031.5 mb 0.00 in0.0 mm 0.00 in0.0 mm 0.01 in0.3 mm
02:00 PM 52.9°F11.6°C 50.6°F10.3°C 92% 2.0 mph ENE3.2 kmh ENE 9.0 mph14.5 kmh 30.46 in1031.5 mb 0.00 in0.0 mm 0.00 in0.0 mm 0.01 in0.3 mm
01:45 PM 52.7°F11.5°C 50.4°F10.2°C 92% 2.0 mph ENE3.2 kmh ENE 8.0 mph12.9 kmh 30.46 in1031.5 mb 0.00 in0.0 mm 0.00 in0.0 mm 0.01 in0.3 mm
01:30 PM 52.6°F11.4°C 50.6°F10.3°C 93% 2.0 mph E3.2 kmh E 9.0 mph14.5 kmh 30.45 in1031.2 mb 0.00 in0.0 mm 0.00 in0.0 mm 0.01 in0.3 mm
01:15 PM 52.4°F11.3°C 50.7°F10.4°C 94% 1.0 mph E1.6 kmh E 10.0 mph16.1 kmh 30.45 in1031.2 mb 0.00 in0.0 mm 0.00 in0.0 mm 0.01 in0.3 mm
01:00 PM 52.1°F11.2°C 50.6°F10.3°C 95% 2.0 mph E3.2 kmh E 9.0 mph14.5 kmh 30.45 in1031.2 mb 0.00 in0.0 mm 0.00 in0.0 mm 0.01 in0.3 mm
12:45 PM 51.6°F10.9°C 50.2°F10.1°C 95% 1.0 mph ENE1.6 kmh ENE 5.0 mph8.0 kmh 30.44 in1030.8 mb 0.00 in0.0 mm 0.00 in0.0 mm 0.01 in0.3 mm
12:30 PM 51.3°F10.7°C 49.9°F9.9°C 95% 2.0 mph ENE3.2 kmh ENE 8.0 mph12.9 kmh 30.44 in1030.8 mb 0.00 in0.0 mm 0.00 in0.0 mm 0.01 in0.3 mm
12:15 PM 51.1°F10.6°C 49.7°F9.8°C 95% 1.0 mph ENE1.6 kmh ENE 5.0 mph8.0 kmh 30.44 in1030.8 mb 0.00 in0.0 mm 0.00 in0.0 mm 0.01 in0.3 mm
12:00 PM 51.1°F10.6°C 49.7°F9.8°C 95% 1.0 mph E1.6 kmh E 10.0 mph16.1 kmh 30.44 in1030.8 mb 0.00 in0.0 mm 0.00 in0.0 mm 0.01 in0.3 mm
11:45 AM 51.1°F10.6°C 49.7°F9.8°C 95% 2.0 mph E3.2 kmh E 9.0 mph14.5 kmh 30.43 in1030.5 mb 0.00 in0.0 mm 0.00 in0.0 mm 0.01 in0.3 mm
11:30 AM 51.1°F10.6°C 49.7°F9.8°C 95% 3.0 mph E4.8 kmh E 8.0 mph12.9 kmh 30.43 in1030.5 mb 0.00 in0.0 mm 0.00 in0.0 mm 0.01 in0.3 mm
11:15 AM 51.0°F10.6°C 49.9°F9.9°C 96% 3.0 mph ENE4.8 kmh ENE 9.0 mph14.5 kmh 30.43 in1030.5 mb 0.00 in0.0 mm 0.00 in0.0 mm 0.01 in0.3 mm
11:00 AM 51.0°F10.6°C 49.9°F9.9°C 96% 1.0 mph ENE1.6 kmh ENE 8.0 mph12.9 kmh 30.42 in1030.1 mb 0.00 in0.0 mm 0.00 in0.0 mm 0.01 in0.3 mm
10:45 AM 50.9°F10.5°C 49.8°F9.9°C 96% 3.0 mph E4.8 kmh E 10.0 mph16.1 kmh 30.42 in1030.1 mb 0.00 in0.0 mm 0.00 in0.0 mm 0.01 in0.3 mm
10:30 AM 50.5°F10.3°C 49.7°F9.8°C 97% 3.0 mph E4.8 kmh E 9.0 mph14.5 kmh 30.41 in1029.8 mb 0.00 in0.0 mm 0.00 in0.0 mm 0.01 in0.3 mm
10:15 AM 50.4°F10.2°C 49.6°F9.8°C 97% 1.0 mph E1.6 kmh E 5.0 mph8.0 kmh 30.41 in1029.8 mb 0.00 in0.0 mm 0.00 in0.0 mm 0.01 in0.3 mm
10:00 AM 50.3°F10.2°C 49.5°F9.7°C 97% 1.0 mph E1.6 kmh E 5.0 mph8.0 kmh 30.41 in1029.8 mb 0.00 in0.0 mm 0.00 in0.0 mm 0.01 in0.3 mm
09:45 AM 50.1°F10.1°C 49.3°F9.6°C 97% 2.0 mph ENE3.2 kmh ENE 8.0 mph12.9 kmh 30.41 in1029.8 mb 0.00 in0.0 mm 0.00 in0.0 mm 0.01 in0.3 mm
09:30 AM 49.8°F9.9°C 49.0°F9.4°C 97% 2.0 mph E3.2 kmh E 10.0 mph16.1 kmh 30.40 in1029.5 mb 0.00 in0.0 mm 0.00 in0.0 mm 0.01 in0.3 mm
09:15 AM 49.6°F9.8°C 48.8°F9.3°C 97% 3.0 mph E4.8 kmh E 9.0 mph14.5 kmh 30.40 in1029.5 mb 0.00 in0.0 mm 0.00 in0.0 mm 0.01 in0.3 mm
09:00 AM 49.4°F9.7°C 48.6°F9.2°C 97% 1.0 mph E1.6 kmh E 4.0 mph6.4 kmh 30.39 in1029.1 mb 0.00 in0.0 mm 0.00 in0.0 mm 0.01 in0.3 mm
08:45 AM 49.2°F9.6°C 48.4°F9.1°C 97% 1.0 mph ENE1.6 kmh ENE 5.0 mph8.0 kmh 30.39 in1029.1 mb 0.00 in0.0 mm 0.00 in0.0 mm 0.01 in0.3 mm
08:30 AM 49.0°F9.4°C 48.2°F9.0°C 97% 1.0 mph E1.6 kmh E 5.0 mph8.0 kmh 30.38 in1028.8 mb 0.00 in0.0 mm 0.00 in0.0 mm 0.01 in0.3 mm
08:15 AM 48.9°F9.4°C 48.1°F8.9°C 97% 1.0 mph ENE1.6 kmh ENE 3.0 mph4.8 kmh 30.38 in1028.8 mb 0.00 in0.0 mm 0.00 in0.0 mm 0.01 in0.3 mm
08:00 AM 48.7°F9.3°C 47.9°F8.8°C 97% 1.0 mph NE1.6 kmh NE 6.0 mph9.7 kmh 30.38 in1028.8 mb 0.00 in0.0 mm 0.00 in0.0 mm 0.01 in0.3 mm
07:45 AM 48.6°F9.2°C 47.8°F8.8°C 97% 1.0 mph ENE1.6 kmh ENE 5.0 mph8.0 kmh 30.37 in1028.4 mb 0.00 in0.0 mm 0.00 in0.0 mm 0.01 in0.3 mm
07:30 AM 48.5°F9.2°C 47.7°F8.7°C 97% 1.0 mph NE1.6 kmh NE 7.0 mph11.3 kmh 30.37 in1028.4 mb 0.00 in0.0 mm 0.00 in0.0 mm 0.01 in0.3 mm
07:15 AM 48.4°F9.1°C 47.6°F8.7°C 97% 2.0 mph NE3.2 kmh NE 5.0 mph8.0 kmh 30.36 in1028.1 mb 0.00 in0.0 mm 0.00 in0.0 mm 0.01 in0.3 mm
07:00 AM 48.2°F9.0°C 47.4°F8.6°C 97% 1.0 mph E1.6 kmh E 6.0 mph9.7 kmh 30.36 in1028.1 mb 0.01 in0.3 mm 0.00 in0.0 mm 0.01 in0.3 mm
06:45 AM 48.2°F9.0°C 47.1°F8.4°C 96% 1.0 mph NE1.6 kmh NE 6.0 mph9.7 kmh 30.36 in1028.1 mb 0.01 in0.3 mm 0.00 in0.0 mm 0.01 in0.3 mm
06:30 AM 48.1°F8.9°C 47.0°F8.3°C 96% 1.0 mph ENE1.6 kmh ENE 8.0 mph12.9 kmh 30.36 in1028.1 mb 0.01 in0.3 mm 0.04 in1.0 mm 0.01 in0.3 mm
06:15 AM 48.0°F8.9°C 46.9°F8.3°C 96% 1.0 mph NE1.6 kmh NE 4.0 mph6.4 kmh 30.35 in1027.8 mb 0.00 in0.0 mm 0.00 in0.0 mm 0.00 in0.0 mm
06:00 AM 48.0°F8.9°C 46.9°F8.3°C 96% Calm Calm 3.0 mph4.8 kmh 30.35 in1027.8 mb 0.00 in0.0 mm 0.00 in0.0 mm 0.00 in0.0 mm
05:45 AM 48.0°F8.9°C 46.6°F8.1°C 95% 1.0 mph ENE1.6 kmh ENE 3.0 mph4.8 kmh 30.34 in1027.4 mb 0.00 in0.0 mm 0.00 in0.0 mm 0.00 in0.0 mm
05:30 AM 48.0°F8.9°C 46.6°F8.1°C 95% 2.0 mph ENE3.2 kmh ENE 8.0 mph12.9 kmh 30.34 in1027.4 mb 0.00 in0.0 mm 0.00 in0.0 mm 0.00 in0.0 mm
05:15 AM 47.9°F8.8°C 46.5°F8.1°C 95% 2.0 mph E3.2 kmh E 7.0 mph11.3 kmh 30.34 in1027.4 mb 0.00 in0.0 mm 0.00 in0.0 mm 0.00 in0.0 mm
05:00 AM 47.8°F8.8°C 46.4°F8.0°C 95% 1.0 mph E1.6 kmh E 4.0 mph6.4 kmh 30.34 in1027.4 mb 0.00 in0.0 mm 0.00 in0.0 mm 0.00 in0.0 mm
04:45 AM 47.8°F8.8°C 46.4°F8.0°C 95% 2.0 mph ENE3.2 kmh ENE 8.0 mph12.9 kmh 30.33 in1027.1 mb 0.00 in0.0 mm 0.00 in0.0 mm 0.00 in0.0 mm
04:30 AM 47.8°F8.8°C 46.2°F7.9°C 94% 2.0 mph E3.2 kmh E 6.0 mph9.7 kmh 30.33 in1027.1 mb 0.00 in0.0 mm 0.00 in0.0 mm 0.00 in0.0 mm
04:15 AM 47.8°F8.8°C 46.2°F7.9°C 94% 1.0 mph NE1.6 kmh NE 3.0 mph4.8 kmh 30.33 in1027.1 mb 0.00 in0.0 mm 0.00 in0.0 mm 0.00 in0.0 mm
04:00 AM 47.8°F8.8°C 46.2°F7.9°C 94% 1.0 mph NE1.6 kmh NE 4.0 mph6.4 kmh 30.32 in1026.8 mb 0.00 in0.0 mm 0.00 in0.0 mm 0.00 in0.0 mm
03:45 AM 47.7°F8.7°C 46.1°F7.8°C 94% 1.0 mph NE1.6 kmh NE 4.0 mph6.4 kmh 30.32 in1026.8 mb 0.00 in0.0 mm 0.00 in0.0 mm 0.00 in0.0 mm
03:30 AM 47.6°F8.7°C 46.0°F7.8°C 94% 1.0 mph ENE1.6 kmh ENE 8.0 mph12.9 kmh 30.32 in1026.8 mb 0.00 in0.0 mm 0.00 in0.0 mm 0.00 in0.0 mm
03:15 AM 47.5°F8.6°C 45.9°F7.7°C 94% Calm Calm 3.0 mph4.8 kmh 30.31 in1026.4 mb 0.00 in0.0 mm 0.00 in0.0 mm 0.00 in0.0 mm
03:00 AM 47.4°F8.6°C 45.8°F7.7°C 94% 1.0 mph NE1.6 kmh NE 4.0 mph6.4 kmh 30.31 in1026.4 mb 0.00 in0.0 mm 0.00 in0.0 mm 0.00 in0.0 mm
02:45 AM 47.4°F8.6°C 45.8°F7.7°C 94% Calm Calm 3.0 mph4.8 kmh 30.31 in1026.4 mb 0.00 in0.0 mm 0.00 in0.0 mm 0.00 in0.0 mm
02:30 AM 47.3°F8.5°C 45.7°F7.6°C 94% 1.0 mph NE1.6 kmh NE 4.0 mph6.4 kmh 30.30 in1026.1 mb 0.00 in0.0 mm 0.00 in0.0 mm 0.00 in0.0 mm
02:15 AM 47.3°F8.5°C 45.4°F7.4°C 93% Calm Calm 2.0 mph3.2 kmh 30.30 in1026.1 mb 0.00 in0.0 mm 0.00 in0.0 mm 0.00 in0.0 mm
02:00 AM 47.2°F8.4°C 45.3°F7.4°C 93% Calm Calm 4.0 mph6.4 kmh 30.30 in1026.1 mb 0.00 in0.0 mm 0.00 in0.0 mm 0.00 in0.0 mm
01:45 AM 47.2°F8.4°C 45.3°F7.4°C 93% Calm Calm 4.0 mph6.4 kmh 30.30 in1026.1 mb 0.00 in0.0 mm 0.00 in0.0 mm 0.00 in0.0 mm
01:30 AM 47.2°F8.4°C 45.3°F7.4°C 93% 1.0 mph ENE1.6 kmh ENE 5.0 mph8.0 kmh 30.29 in1025.7 mb 0.00 in0.0 mm 0.00 in0.0 mm 0.00 in0.0 mm
01:15 AM 47.1°F8.4°C 45.2°F7.3°C 93% 1.0 mph NE1.6 kmh NE 8.0 mph12.9 kmh 30.29 in1025.7 mb 0.00 in0.0 mm 0.00 in0.0 mm 0.00 in0.0 mm
01:00 AM 47.1°F8.4°C 45.2°F7.3°C 93% 3.0 mph NE4.8 kmh NE 9.0 mph14.5 kmh 30.29 in1025.7 mb 0.00 in0.0 mm 0.00 in0.0 mm 0.00 in0.0 mm
12:45 AM 47.1°F8.4°C 45.2°F7.3°C 93% 2.0 mph NE3.2 kmh NE 6.0 mph9.7 kmh 30.29 in1025.7 mb 0.00 in0.0 mm 0.00 in0.0 mm 0.00 in0.0 mm
12:30 AM 47.1°F8.4°C 45.2°F7.3°C 93% 2.0 mph NE3.2 kmh NE 8.0 mph12.9 kmh 30.29 in1025.7 mb 0.00 in0.0 mm 0.00 in0.0 mm 0.00 in0.0 mm
12:15 AM 47.1°F8.4°C 45.5°F7.5°C 94% 1.0 mph NE1.6 kmh NE 6.0 mph9.7 kmh 30.28 in1025.4 mb 0.00 in0.0 mm 0.00 in0.0 mm 0.00 in0.0 mm
12:00 AM 47.2°F8.4°C 45.6°F7.6°C 94% 1.0 mph NE1.6 kmh NE 6.0 mph9.7 kmh 30.28 in1025.4 mb 0.00 in0.0 mm 0.00 in0.0 mm 0.00 in0.0 mm